Rhododendron Park, Washington
Current Conditions -  °F | °C
As of 5:58 AM on Saturday 22 Nov 2014 (Local Time) from KTCM Reporting Station
Scattered Clouds Scattered Clouds  
Wind Chill: 38°   Ceiling: Unl
Heat Index: 44°   Visibility: 10mi
Dew Point: 42°   Wind: 10mph
Humidity: 94%   Direction: 180°S
Pressure: 29.69"   Gusts: NA
Location:  47.1874°N, 122.164°W
Report Text: KTCM 221358Z AUTO 18009KT 10SM FEW037 SCT049 06/06 A2969 RMK AO2 SLP059 T00640055 $
Loading
Personal Weather Stations






























Interactive Weather Map New forecast layout! Learn more

10-Day Weather Forecast

Advertisements
Track Severe Weather on mobile